sensor_id;sensor_type;location;lat;lon;timestamp;P1;durP1;ratioP1;P2;durP2;ratioP2
29254;SDS011;16277;48.890;2.306;2023-09-18T00:05:46;5.60;;;2.17;;
29254;SDS011;16277;48.890;2.306;2023-09-18T00:20:51;8.60;;;2.87;;
29254;SDS011;16277;48.890;2.306;2023-09-18T00:35:57;2.43;;;2.00;;
29254;SDS011;16277;48.890;2.306;2023-09-18T00:51:02;1.73;;;1.63;;
29254;SDS011;16277;48.890;2.306;2023-09-18T01:06:07;4.70;;;2.27;;
29254;SDS011;16277;48.890;2.306;2023-09-18T01:21:11;6.50;;;1.73;;
29254;SDS011;16277;48.890;2.306;2023-09-18T01:36:16;4.33;;;1.80;;
29254;SDS011;16277;48.890;2.306;2023-09-18T01:51:22;7.43;;;1.13;;
29254;SDS011;16277;48.890;2.306;2023-09-18T02:06:26;5.67;;;1.93;;
29254;SDS011;16277;48.890;2.306;2023-09-18T02:21:31;2.33;;;1.10;;
29254;SDS011;16277;48.890;2.306;2023-09-18T02:36:36;3.20;;;1.43;;
29254;SDS011;16277;48.890;2.306;2023-09-18T02:51:59;3.77;;;2.07;;
29254;SDS011;16277;48.890;2.306;2023-09-18T03:07:04;8.77;;;2.37;;
29254;SDS011;16277;48.890;2.306;2023-09-18T03:22:27;9.93;;;3.33;;
29254;SDS011;16277;48.890;2.306;2023-09-18T03:37:31;2.97;;;1.87;;
29254;SDS011;16277;48.890;2.306;2023-09-18T03:52:37;3.10;;;1.80;;
29254;SDS011;16277;48.890;2.306;2023-09-18T04:07:43;6.33;;;1.93;;
29254;SDS011;16277;48.890;2.306;2023-09-18T04:23:16;3.87;;;2.07;;
29254;SDS011;16277;48.890;2.306;2023-09-18T04:38:26;9.43;;;2.80;;
29254;SDS011;16277;48.890;2.306;2023-09-18T04:53:30;2.50;;;2.10;;
29254;SDS011;16277;48.890;2.306;2023-09-18T05:08:36;2.20;;;2.03;;
29254;SDS011;16277;48.890;2.306;2023-09-18T05:23:40;4.67;;;2.87;;
29254;SDS011;16277;48.890;2.306;2023-09-18T05:38:45;14.80;;;3.70;;
29254;SDS011;16277;48.890;2.306;2023-09-18T05:53:49;4.80;;;3.10;;
29254;SDS011;16277;48.890;2.306;2023-09-18T06:08:54;5.80;;;3.53;;
29254;SDS011;16277;48.890;2.306;2023-09-18T06:23:58;3.67;;;3.13;;
29254;SDS011;16277;48.890;2.306;2023-09-18T06:39:03;16.90;;;4.10;;
29254;SDS011;16277;48.890;2.306;2023-09-18T06:54:08;9.77;;;4.33;;
29254;SDS011;16277;48.890;2.306;2023-09-18T07:09:13;17.63;;;5.33;;
29254;SDS011;16277;48.890;2.306;2023-09-18T07:24:18;11.43;;;4.27;;
29254;SDS011;16277;48.890;2.306;2023-09-18T07:39:23;13.37;;;4.40;;
29254;SDS011;16277;48.890;2.306;2023-09-18T07:54:30;6.40;;;3.97;;
29254;SDS011;16277;48.890;2.306;2023-09-18T08:09:36;28.53;;;4.67;;
29254;SDS011;16277;48.890;2.306;2023-09-18T08:24:41;11.00;;;3.87;;
29254;SDS011;16277;48.890;2.306;2023-09-18T08:39:48;9.47;;;3.97;;
29254;SDS011;16277;48.890;2.306;2023-09-18T08:54:52;13.77;;;4.13;;
29254;SDS011;16277;48.890;2.306;2023-09-18T09:09:59;9.80;;;3.37;;
29254;SDS011;16277;48.890;2.306;2023-09-18T09:25:04;13.87;;;3.30;;
29254;SDS011;16277;48.890;2.306;2023-09-18T09:40:09;11.27;;;3.47;;
29254;SDS011;16277;48.890;2.306;2023-09-18T09:55:25;12.93;;;3.37;;
29254;SDS011;16277;48.890;2.306;2023-09-18T10:10:32;2.60;;;2.00;;
29254;SDS011;16277;48.890;2.306;2023-09-18T10:25:39;7.07;;;2.90;;
29254;SDS011;16277;48.890;2.306;2023-09-18T10:40:44;8.13;;;2.37;;
29254;SDS011;16277;48.890;2.306;2023-09-18T10:55:51;3.73;;;2.67;;
29254;SDS011;16277;48.890;2.306;2023-09-18T11:10:56;2.90;;;2.70;;
29254;SDS011;16277;48.890;2.306;2023-09-18T11:26:08;7.57;;;2.27;;
29254;SDS011;16277;48.890;2.306;2023-09-18T11:41:23;9.27;;;2.30;;
29254;SDS011;16277;48.890;2.306;2023-09-18T11:56:29;2.90;;;2.07;;
29254;SDS011;16277;48.890;2.306;2023-09-18T12:11:34;16.13;;;2.87;;
29254;SDS011;16277;48.890;2.306;2023-09-18T12:26:40;9.97;;;1.70;;
29254;SDS011;16277;48.890;2.306;2023-09-18T12:41:45;2.60;;;2.13;;
29254;SDS011;16277;48.890;2.306;2023-09-18T12:56:50;2.80;;;1.53;;
29254;SDS011;16277;48.890;2.306;2023-09-18T13:11:56;2.40;;;1.43;;
29254;SDS011;16277;48.890;2.306;2023-09-18T13:27:01;7.53;;;2.30;;
29254;SDS011;16277;48.890;2.306;2023-09-18T13:42:06;9.33;;;1.00;;
29254;SDS011;16277;48.890;2.306;2023-09-18T13:57:29;1.33;;;1.23;;
29254;SDS011;16277;48.890;2.306;2023-09-18T14:12:33;3.30;;;1.63;;
29254;SDS011;16277;48.890;2.306;2023-09-18T14:27:39;1.30;;;1.20;;
29254;SDS011;16277;48.890;2.306;2023-09-18T14:42:43;6.63;;;1.53;;
29254;SDS011;16277;48.890;2.306;2023-09-18T14:57:48;1.43;;;1.33;;
29254;SDS011;16277;48.890;2.306;2023-09-18T15:12:57;1.60;;;1.50;;
29254;SDS011;16277;48.890;2.306;2023-09-18T15:28:01;1.37;;;1.37;;
29254;SDS011;16277;48.890;2.306;2023-09-18T15:43:06;2.53;;;1.57;;
29254;SDS011;16277;48.890;2.306;2023-09-18T15:58:11;2.50;;;2.33;;
29254;SDS011;16277;48.890;2.306;2023-09-18T16:13:17;5.43;;;1.67;;
29254;SDS011;16277;48.890;2.306;2023-09-18T16:28:22;1.30;;;1.20;;
29254;SDS011;16277;48.890;2.306;2023-09-18T16:43:26;1.63;;;1.63;;
29254;SDS011;16277;48.890;2.306;2023-09-18T16:58:38;1.93;;;1.53;;
29254;SDS011;16277;48.890;2.306;2023-09-18T17:13:42;1.63;;;1.53;;
29254;SDS011;16277;48.890;2.306;2023-09-18T17:28:47;2.33;;;1.27;;
29254;SDS011;16277;48.890;2.306;2023-09-18T17:43:51;4.47;;;2.10;;
29254;SDS011;16277;48.890;2.306;2023-09-18T17:58:56;1.30;;;1.27;;
29254;SDS011;16277;48.890;2.306;2023-09-18T18:14:01;2.97;;;2.23;;
29254;SDS011;16277;48.890;2.306;2023-09-18T18:29:06;3.37;;;1.83;;
29254;SDS011;16277;48.890;2.306;2023-09-18T18:44:11;4.07;;;2.57;;
29254;SDS011;16277;48.890;2.306;2023-09-18T18:59:16;4.73;;;2.30;;
29254;SDS011;16277;48.890;2.306;2023-09-18T19:14:20;3.60;;;2.90;;
29254;SDS011;16277;48.890;2.306;2023-09-18T19:29:25;4.30;;;3.43;;
29254;SDS011;16277;48.890;2.306;2023-09-18T19:44:31;3.90;;;2.57;;
29254;SDS011;16277;48.890;2.306;2023-09-18T19:59:35;5.40;;;2.87;;
29254;SDS011;16277;48.890;2.306;2023-09-18T20:14:40;7.87;;;3.30;;
29254;SDS011;16277;48.890;2.306;2023-09-18T20:29:46;6.33;;;3.37;;
29254;SDS011;16277;48.890;2.306;2023-09-18T20:44:51;11.63;;;4.53;;
29254;SDS011;16277;48.890;2.306;2023-09-18T20:59:57;4.57;;;3.20;;
29254;SDS011;16277;48.890;2.306;2023-09-18T21:15:02;7.47;;;3.23;;
29254;SDS011;16277;48.890;2.306;2023-09-18T21:30:09;3.17;;;2.87;;
29254;SDS011;16277;48.890;2.306;2023-09-18T21:45:14;9.37;;;3.97;;
29254;SDS011;16277;48.890;2.306;2023-09-18T22:00:19;7.23;;;3.47;;
29254;SDS011;16277;48.890;2.306;2023-09-18T22:15:25;10.93;;;3.70;;
29254;SDS011;16277;48.890;2.306;2023-09-18T22:30:30;11.10;;;4.13;;
29254;SDS011;16277;48.890;2.306;2023-09-18T23:01:16;9.60;;;3.97;;
29254;SDS011;16277;48.890;2.306;2023-09-18T23:16:22;6.83;;;2.33;;
29254;SDS011;16277;48.890;2.306;2023-09-18T23:31:28;6.53;;;2.43;;
29254;SDS011;16277;48.890;2.306;2023-09-18T23:46:33;15.00;;;3.17;;
